Time;durP1;ratioP1;P1;durP2;ratioP2;P2;SDS_P1;SDS_P2;PMS_P1;PMS_P2;Temp;Humidity;BMP_temperature;BMP_pressure;BME280_temperature;BME280_humidity;BME280_pressure;Samples;Min_cycle;Max_cycle;Signal;HPM_P1;HPM_P2
2022/03/01 00:00:11;;;;;;;6.57;4.75;;;16.60;38.50;15.70;102561.00;;;;5074910;28;20115;-72
2022/03/01 00:02:57;;;;;;;6.82;5.00;;;16.60;38.50;15.70;102570.00;;;;5042447;28;20060;-72
2022/03/01 00:05:43;;;;;;;6.07;5.03;;;16.60;38.50;15.70;102568.00;;;;5072823;28;20040;-72
2022/03/01 00:08:29;;;;;;;7.47;4.82;;;16.60;38.50;15.70;102556.00;;;;5050541;28;20043;-72
2022/03/01 00:11:15;;;;;;;7.05;5.15;;;16.60;38.50;15.60;102557.00;;;;5079023;28;20401;-72
2022/03/01 00:14:02;;;;;;;6.85;4.53;;;16.90;38.60;15.70;102554.00;;;;5075009;28;20050;-72
2022/03/01 00:16:48;;;;;;;6.40;4.63;;;16.60;38.50;15.60;102555.00;;;;5053161;28;20058;-72
2022/03/01 00:19:34;;;;;;;7.03;4.55;;;16.60;38.50;15.60;102556.00;;;;5069926;28;20171;-72
2022/03/01 00:22:20;;;;;;;7.05;4.68;;;16.60;38.50;15.60;102549.00;;;;5070968;28;20048;-72
2022/03/01 00:25:07;;;;;;;8.38;5.57;;;16.50;38.50;15.60;102549.00;;;;5074091;28;20076;-72
2022/03/01 00:27:53;;;;;;;7.50;4.78;;;16.60;38.50;15.60;102542.00;;;;5054629;28;20409;-72
2022/03/01 00:30:39;;;;;;;7.15;4.97;;;16.50;38.50;15.60;102549.00;;;;5070260;28;20070;-72
2022/03/01 00:33:25;;;;;;;6.22;4.57;;;16.50;38.50;15.60;102551.00;;;;5063898;28;20051;-72
2022/03/01 00:36:11;;;;;;;6.35;4.95;;;16.50;38.50;15.60;102552.00;;;;5070327;28;20032;-72
2022/03/01 00:38:57;;;;;;;7.40;5.13;;;16.50;38.50;15.60;102540.00;;;;5059707;28;20132;-73
2022/03/01 00:41:43;;;;;;;7.82;5.13;;;16.50;38.50;15.60;102532.00;;;;5066427;28;20032;-73
2022/03/01 00:44:29;;;;;;;6.10;4.78;;;16.50;38.50;15.60;102545.00;;;;5053329;28;20040;-73
2022/03/01 00:47:15;;;;;;;8.00;5.43;;;16.50;38.50;15.60;102538.00;;;;5063006;28;20123;-73
2022/03/01 00:50:01;;;;;;;6.90;5.15;;;16.50;38.70;15.60;102531.00;;;;5072305;28;20036;-73
2022/03/01 00:52:47;;;;;;;9.02;5.50;;;16.50;38.50;15.60;102525.00;;;;5065923;28;20517;-73
2022/03/01 00:55:34;;;;;;;9.15;5.15;;;16.50;38.50;15.60;102538.00;;;;5052824;28;20044;-72
2022/03/01 00:58:20;;;;;;;5.63;4.45;;;16.50;38.50;15.60;102526.00;;;;5052377;28;20050;-72
2022/03/01 01:01:06;;;;;;;7.88;4.85;;;16.50;38.50;15.60;102528.00;;;;5072291;27;20502;-72
2022/03/01 01:03:52;;;;;;;6.88;4.93;;;16.50;38.60;15.60;102531.00;;;;5045236;28;20036;-72
2022/03/01 01:06:39;;;;;;;7.57;5.20;;;16.50;38.60;15.60;102530.00;;;;5070048;28;20037;-73
2022/03/01 01:09:25;;;;;;;7.72;5.07;;;16.50;38.60;15.60;102526.00;;;;5070111;28;20052;-72
2022/03/01 01:12:11;;;;;;;7.75;5.30;;;16.50;38.60;15.50;102525.00;;;;5065476;28;20037;-73
2022/03/01 01:14:57;;;;;;;7.80;5.18;;;16.50;38.60;15.60;102523.00;;;;5071056;28;20247;-72
2022/03/01 01:17:43;;;;;;;8.10;5.30;;;16.40;38.50;15.50;102520.00;;;;5064514;28;20040;-72
2022/03/01 01:20:29;;;;;;;7.05;5.05;;;16.50;38.60;15.50;102529.00;;;;5068643;28;20044;-73
2022/03/01 01:23:15;;;;;;;9.07;5.38;;;16.50;38.60;15.50;102527.00;;;;5067054;28;20079;-72
2022/03/01 01:26:01;;;;;;;7.70;5.22;;;16.50;38.60;15.50;102522.00;;;;5073429;28;20028;-72
2022/03/01 01:28:47;;;;;;;8.82;5.90;;;16.50;38.60;15.50;102525.00;;;;5053793;28;20039;-72
2022/03/01 01:31:33;;;;;;;7.18;5.43;;;16.40;38.60;15.50;102522.00;;;;5069806;28;20044;-72
2022/03/01 01:34:19;;;;;;;7.75;5.70;;;16.40;38.60;15.50;102517.00;;;;5069393;28;20041;-72
2022/03/01 01:37:05;;;;;;;7.00;5.13;;;16.40;38.60;15.50;102522.00;;;;5072011;28;20405;-72
2022/03/01 01:39:54;;;;;;;7.97;5.32;;;16.40;38.60;15.50;102539.00;;;;5065599;28;20048;-72
2022/03/01 01:42:40;;;;;;;8.35;5.18;;;16.60;38.70;15.50;102520.00;;;;5072563;28;20036;-72
2022/03/01 01:45:26;;;;;;;7.70;5.50;;;16.40;38.60;15.50;102520.00;;;;5054662;28;20041;-72
2022/03/01 01:48:13;;;;;;;7.05;5.70;;;16.40;38.60;15.50;102531.00;;;;5068112;28;20567;-72
2022/03/01 01:50:59;;;;;;;8.18;5.75;;;16.40;38.60;15.50;102533.00;;;;5064774;28;20401;-72
2022/03/01 01:53:45;;;;;;;8.32;5.55;;;16.50;38.70;15.50;102544.00;;;;5050440;28;20059;-72
2022/03/01 01:56:32;;;;;;;7.72;5.38;;;16.40;38.60;15.50;102545.00;;;;5053546;28;20473;-72
2022/03/01 01:59:18;;;;;;;7.57;5.55;;;16.40;38.60;15.50;102544.00;;;;5065498;28;20098;-72
2022/03/01 02:02:04;;;;;;;9.15;6.05;;;16.40;38.60;15.50;102547.00;;;;5064969;28;20043;-72
2022/03/01 02:04:51;;;;;;;7.93;4.78;;;16.40;38.60;15.50;102536.00;;;;5066068;28;20112;-72
2022/03/01 02:07:37;;;;;;;7.18;5.57;;;16.40;38.60;15.50;102546.00;;;;5058314;28;20182;-73
2022/03/01 02:10:23;;;;;;;9.10;6.20;;;16.40;38.60;15.50;102540.00;;;;5070266;28;20044;-72
2022/03/01 02:13:09;;;;;;;8.10;6.03;;;16.40;38.60;15.50;102524.00;;;;5067206;28;20040;-72
2022/03/01 02:15:55;;;;;;;9.45;5.65;;;16.40;38.70;15.40;102535.00;;;;5080525;28;20035;-72
2022/03/01 02:18:41;;;;;;;9.63;5.85;;;16.40;38.70;15.40;102523.00;;;;5052998;28;20040;-73
2022/03/01 02:21:27;;;;;;;9.48;5.82;;;16.30;38.60;15.40;102534.00;;;;5054905;28;20040;-72
2022/03/01 02:24:14;;;;;;;7.93;5.43;;;16.40;38.70;15.40;102531.00;;;;5068234;28;20032;-73
2022/03/01 02:27:03;;;;;;;8.45;5.75;;;16.30;38.70;15.40;102530.00;;;;5065553;28;20052;-72
2022/03/01 02:29:49;;;;;;;9.13;6.47;;;16.30;38.70;15.40;102526.00;;;;5068929;28;20064;-72
2022/03/01 02:32:36;;;;;;;8.77;5.85;;;16.30;38.60;15.40;102526.00;;;;5054404;28;20045;-73
2022/03/01 02:35:22;;;;;;;9.10;5.88;;;16.30;38.70;15.40;102522.00;;;;5053094;28;20413;-72
2022/03/01 02:38:08;;;;;;;9.80;6.10;;;16.30;38.70;15.40;102529.00;;;;5061035;28;20047;-72
2022/03/01 02:40:54;;;;;;;9.50;6.10;;;16.30;38.70;15.40;102526.00;;;;5061307;28;20552;-72
2022/03/01 02:43:41;;;;;;;7.35;5.07;;;16.30;38.70;15.40;102527.00;;;;5073782;28;20085;-73
2022/03/01 02:46:27;;;;;;;8.95;5.90;;;16.30;38.70;15.40;102532.00;;;;5053618;28;20044;-72
2022/03/01 02:49:13;;;;;;;8.20;5.70;;;16.30;38.70;15.40;102530.00;;;;5064594;28;20047;-73
2022/03/01 02:51:59;;;;;;;8.48;5.70;;;16.30;38.70;15.40;102527.00;;;;5047034;28;20043;-72
2022/03/01 02:54:45;;;;;;;8.35;5.70;;;16.30;38.70;15.40;102522.00;;;;5063601;28;20041;-72
2022/03/01 02:57:31;;;;;;;8.32;5.78;;;16.30;38.80;15.40;102525.00;;;;5064643;28;20405;-72
2022/03/01 03:00:17;;;;;;;8.68;5.53;;;16.30;38.80;15.40;102515.00;;;;5072081;28;20127;-72
2022/03/01 03:03:03;;;;;;;8.10;5.72;;;16.30;38.80;15.40;102519.00;;;;5060569;28;20033;-72
2022/03/01 03:05:49;;;;;;;8.02;5.88;;;16.30;38.90;15.40;102514.00;;;;5069195;28;20051;-73
2022/03/01 03:08:39;;;;;;;9.35;6.18;;;16.30;38.90;15.40;102504.00;;;;5071591;28;20485;-72
2022/03/01 03:11:25;;;;;;;7.88;5.60;;;16.30;38.90;15.30;102507.00;;;;5073031;28;20063;-72
2022/03/01 03:14:11;;;;;;;6.93;5.32;;;16.30;38.90;15.30;102500.00;;;;5075743;28;20031;-73
2022/03/01 03:16:58;;;;;;;9.70;6.28;;;16.20;38.80;15.30;102501.00;;;;5065877;28;20261;-73
2022/03/01 03:19:44;;;;;;;7.88;5.95;;;16.20;38.90;15.30;102505.00;;;;5068520;28;20040;-73
2022/03/01 03:22:30;;;;;;;8.68;6.15;;;16.20;38.90;15.30;102491.00;;;;5054067;28;20541;-73
2022/03/01 03:25:16;;;;;;;8.65;6.22;;;16.20;38.80;15.30;102495.00;;;;5075749;28;20086;-73
2022/03/01 03:28:02;;;;;;;9.13;6.38;;;16.20;38.80;15.30;102487.00;;;;5072421;28;20028;-73
2022/03/01 03:30:48;;;;;;;10.02;6.25;;;16.20;38.80;15.30;102464.00;;;;5070745;28;20458;-73
2022/03/01 03:33:34;;;;;;;10.48;6.53;;;16.20;38.80;15.30;102473.00;;;;5076479;28;20101;-72
2022/03/01 03:36:20;;;;;;;9.52;6.40;;;16.20;38.80;15.30;102476.00;;;;5071952;28;20097;-73
2022/03/01 03:39:08;;;;;;;8.40;5.97;;;16.20;38.80;15.30;102477.00;;;;5072183;28;20052;-72
2022/03/01 03:41:54;;;;;;;7.75;5.63;;;16.20;38.80;15.30;102482.00;;;;5073736;28;20492;-72
2022/03/01 03:44:40;;;;;;;10.52;6.60;;;16.20;38.80;15.30;102476.00;;;;5073888;28;20033;-72
2022/03/01 03:47:26;;;;;;;7.82;6.18;;;16.20;38.80;15.30;102473.00;;;;5063218;28;20056;-72
2022/03/01 03:50:12;;;;;;;8.82;5.97;;;16.20;38.80;15.30;102478.00;;;;5069246;28;20062;-72
2022/03/01 03:53:00;;;;;;;10.68;6.75;;;16.20;38.80;15.30;102474.00;;;;5070689;28;20481;-72
2022/03/01 03:55:46;;;;;;;9.40;6.35;;;16.20;38.80;15.30;102480.00;;;;5075114;28;20048;-72
2022/03/01 03:58:32;;;;;;;10.25;6.78;;;16.20;38.80;15.30;102478.00;;;;5067774;28;20036;-72
2022/03/01 04:01:18;;;;;;;8.48;5.97;;;16.20;38.80;15.30;102473.00;;;;5067602;28;20041;-72
2022/03/01 04:04:04;;;;;;;10.02;6.10;;;16.20;38.80;15.30;102487.00;;;;5056341;28;20086;-72
2022/03/01 04:06:50;;;;;;;9.18;6.03;;;16.20;38.80;15.30;102495.00;;;;5051596;28;20120;-72
2022/03/01 04:09:37;;;;;;;8.70;6.22;;;16.20;38.80;15.30;102493.00;;;;5070878;28;20063;-73
2022/03/01 04:12:23;;;;;;;10.55;6.35;;;16.20;38.80;15.30;102488.00;;;;5068877;28;20072;-72
2022/03/01 04:15:10;;;;;;;10.13;6.57;;;16.10;38.80;15.30;102490.00;;;;5061264;28;20128;-72
2022/03/01 04:17:56;;;;;;;8.32;6.43;;;16.20;38.80;15.30;102485.00;;;;5051151;28;20037;-73
2022/03/01 04:20:44;;;;;;;9.55;6.20;;;16.10;38.80;15.30;102493.00;;;;5067720;28;20045;-72
2022/03/01 04:23:30;;;;;;;13.38;6.20;;;16.20;38.90;15.30;102496.00;;;;5056416;28;20375;-72
2022/03/01 04:26:16;;;;;;;8.32;6.10;;;16.20;38.90;15.30;102489.00;;;;5059602;28;20050;-73
2022/03/01 04:29:03;;;;;;;8.73;6.32;;;16.10;38.90;15.30;102495.00;;;;5069146;28;20452;-73
2022/03/01 04:31:49;;;;;;;9.15;6.28;;;16.20;38.90;15.20;102490.00;;;;5071035;28;20040;-72
2022/03/01 04:34:35;;;;;;;10.95;6.90;;;16.10;38.90;15.20;102480.00;;;;5074846;28;20036;-72
2022/03/01 04:37:21;;;;;;;9.13;6.50;;;16.10;38.80;15.20;102467.00;;;;5075865;28;20454;-72
2022/03/01 04:40:09;;;;;;;8.23;6.07;;;16.10;38.90;15.20;102452.00;;;;5063942;28;20045;-72
2022/03/01 04:42:55;;;;;;;9.95;6.65;;;16.10;38.80;15.20;102462.00;;;;5058542;28;20115;-72
2022/03/01 04:45:41;;;;;;;10.98;6.40;;;16.10;38.80;15.20;102481.00;;;;5070104;28;20071;-73
2022/03/01 04:48:28;;;;;;;10.25;6.20;;;16.10;38.80;15.20;102491.00;;;;5066850;28;20064;-72
2022/03/01 04:51:14;;;;;;;9.88;6.85;;;16.10;38.90;15.20;102491.00;;;;5073039;28;20402;-73
2022/03/01 04:54:00;;;;;;;12.32;7.05;;;16.10;38.80;15.20;102485.00;;;;5063735;28;20048;-73
2022/03/01 04:56:46;;;;;;;9.98;6.97;;;16.10;38.80;15.20;102485.00;;;;5069053;28;20056;-72
2022/03/01 04:59:32;;;;;;;10.32;6.65;;;16.10;38.80;15.20;102482.00;;;;5072572;28;20044;-73
2022/03/01 05:02:18;;;;;;;11.02;6.97;;;16.10;38.90;15.20;102486.00;;;;5054072;28;20098;-73
2022/03/01 05:05:10;;;;;;;10.02;6.65;;;16.10;38.90;15.20;102485.00;;;;5063291;28;20090;-73
2022/03/01 05:07:56;;;;;;;10.43;6.68;;;16.10;38.90;15.20;102492.00;;;;5064261;28;20112;-72
2022/03/01 05:10:42;;;;;;;11.48;7.25;;;16.10;38.90;15.20;102487.00;;;;5070361;28;20496;-73
2022/03/01 05:13:28;;;;;;;13.27;7.07;;;16.10;38.90;15.20;102493.00;;;;5067966;28;20410;-72
2022/03/01 05:16:14;;;;;;;11.98;7.05;;;16.10;38.90;15.20;102487.00;;;;5051240;28;20040;-73
2022/03/01 05:19:00;;;;;;;10.75;7.07;;;16.10;38.90;15.20;102481.00;;;;5069225;28;20093;-72
2022/03/01 05:21:46;;;;;;;11.80;7.22;;;16.10;38.90;15.20;102485.00;;;;5048110;28;20631;-73
2022/03/01 05:24:32;;;;;;;10.00;6.85;;;16.10;38.90;15.20;102480.00;;;;5067118;28;20040;-72
2022/03/01 05:27:18;;;;;;;11.23;7.55;;;16.20;38.90;15.20;102481.00;;;;5067201;28;20045;-72
2022/03/01 05:30:06;;;;;;;10.55;7.10;;;16.10;38.90;15.20;102480.00;;;;5065788;28;20043;-73
2022/03/01 05:32:53;;;;;;;10.73;6.90;;;16.10;38.90;15.20;102481.00;;;;5054589;28;20044;-72
2022/03/01 05:35:39;;;;;;;12.23;7.43;;;16.10;38.90;15.20;102489.00;;;;5057628;28;20041;-72
2022/03/01 05:38:25;;;;;;;11.77;7.53;;;16.00;38.80;15.20;102481.00;;;;5068503;28;20067;-72
2022/03/01 05:41:11;;;;;;;12.68;7.10;;;16.10;38.90;15.20;102489.00;;;;5051851;28;20040;-73
2022/03/01 05:43:57;;;;;;;11.10;6.93;;;16.10;39.00;15.20;102483.00;;;;5068171;28;20045;-72
2022/03/01 05:46:43;;;;;;;10.13;6.82;;;16.10;38.90;15.20;102491.00;;;;5061806;28;20033;-72
2022/03/01 05:49:29;;;;;;;11.30;7.15;;;16.10;38.90;15.20;102484.00;;;;5068227;28;20199;-72
2022/03/01 05:52:15;;;;;;;9.73;6.35;;;16.00;38.90;15.20;102490.00;;;;5071998;28;20507;-73
2022/03/01 05:55:03;;;;;;;10.25;6.60;;;16.00;38.90;15.20;102496.00;;;;5067416;28;20040;-72
2022/03/01 05:57:49;;;;;;;11.35;7.13;;;16.00;38.90;15.10;102503.00;;;;5052834;28;20052;-72
2022/03/01 06:00:35;;;;;;;11.45;7.32;;;16.10;39.00;15.10;102488.00;;;;5068842;28;20378;-73
2022/03/01 06:03:21;;;;;;;9.63;7.05;;;16.10;39.00;15.10;102500.00;;;;5067959;28;20115;-73
2022/03/01 06:06:07;;;;;;;11.05;6.93;;;16.10;39.00;15.10;102488.00;;;;5068669;28;20120;-73
2022/03/01 06:08:53;;;;;;;10.70;7.05;;;16.00;39.00;15.10;102494.00;;;;5069472;28;20045;-73
2022/03/01 06:11:39;;;;;;;12.65;7.97;;;16.00;39.00;15.00;102504.00;;;;5069351;28;20033;-72
2022/03/01 06:14:25;;;;;;;11.25;7.13;;;16.10;39.10;15.10;102501.00;;;;5053123;28;20095;-73
2022/03/01 06:17:11;;;;;;;10.45;6.63;;;16.00;39.00;15.10;102501.00;;;;5065086;28;20090;-72
2022/03/01 06:19:57;;;;;;;9.55;7.20;;;16.00;39.00;15.10;102495.00;;;;5069135;28;20059;-73
2022/03/01 06:22:44;;;;;;;10.68;6.93;;;16.00;39.00;15.10;102497.00;;;;5066526;28;20085;-73
2022/03/01 06:25:30;;;;;;;12.68;7.00;;;16.00;39.00;15.10;102496.00;;;;5050961;28;20101;-73
2022/03/01 06:28:16;;;;;;;10.07;7.15;;;16.10;39.10;15.10;102493.00;;;;5063155;28;20041;-73
2022/03/01 06:31:02;;;;;;;11.93;6.97;;;16.00;39.00;15.10;102491.00;;;;5068297;28;20048;-73
2022/03/01 06:33:48;;;;;;;11.77;7.40;;;16.00;39.00;15.10;102492.00;;;;5068845;28;20043;-73
2022/03/01 06:36:34;;;;;;;11.05;7.15;;;16.00;39.00;15.10;102502.00;;;;5064291;28;20036;-73
2022/03/01 06:39:20;;;;;;;12.98;7.38;;;16.00;39.00;15.10;102499.00;;;;5062072;28;20135;-73
2022/03/01 06:42:06;;;;;;;13.50;8.65;;;16.00;39.00;15.10;102496.00;;;;5059885;28;20401;-73
2022/03/01 06:44:52;;;;;;;11.63;8.00;;;16.00;39.00;15.10;102496.00;;;;5063435;28;20052;-73
2022/03/01 06:47:38;;;;;;;11.57;7.43;;;16.00;39.00;15.10;102507.00;;;;5060600;28;20039;-73
2022/03/01 06:50:25;;;;;;;10.13;7.47;;;16.00;39.00;15.10;102510.00;;;;5066340;28;20040;-73
2022/03/01 06:53:13;;;;;;;11.90;7.40;;;16.00;39.00;15.10;102520.00;;;;5071065;28;20492;-73
2022/03/01 06:55:59;;;;;;;9.90;6.85;;;16.00;39.00;15.10;102500.00;;;;5072274;28;20036;-73
2022/03/01 06:58:46;;;;;;;11.93;7.60;;;16.00;39.00;15.10;102510.00;;;;5051746;28;20036;-73
2022/03/01 07:01:32;;;;;;;12.18;8.15;;;16.00;38.90;15.10;102514.00;;;;5071713;28;20557;-72
2022/03/01 07:04:18;;;;;;;10.73;7.32;;;16.00;38.90;15.10;102519.00;;;;5056896;28;20036;-73
2022/03/01 07:07:05;;;;;;;12.10;7.45;;;16.00;38.90;15.10;102512.00;;;;5076162;28;20036;-73
2022/03/01 07:09:52;;;;;;;;;;;16.00;38.90;15.10;102507.00;;;;5050687;28;20195;-73
2022/03/01 07:12:39;;;;;;;12.57;7.15;;;16.00;39.00;15.10;102503.00;;;;5073482;28;20384;-74
2022/03/01 07:15:26;;;;;;;10.82;7.35;;;16.00;39.60;15.10;102509.00;;;;5043580;28;20056;-73
2022/03/01 07:18:12;;;;;;;11.20;7.38;;;16.00;38.80;15.10;102501.00;;;;5069765;28;20036;-73
2022/03/01 07:20:58;;;;;;;11.57;7.53;;;16.00;38.80;15.10;102510.00;;;;5066140;28;20048;-74
2022/03/01 07:23:44;;;;;;;12.93;7.78;;;16.00;38.80;15.10;102501.00;;;;5070424;28;20478;-73
2022/03/01 07:26:31;;;;;;;17.83;8.10;;;16.00;38.80;15.10;102503.00;;;;5061838;28;20040;-73
2022/03/01 07:29:17;;;;;;;18.38;7.95;;;16.00;38.80;15.10;102508.00;;;;5066487;28;20228;-73
2022/03/01 07:32:07;;;;;;;19.80;8.20;;;16.00;38.80;15.10;102511.00;;;;5052847;28;20044;-73
2022/03/01 07:34:53;;;;;;;10.80;7.47;;;16.00;38.80;15.10;102519.00;;;;5037170;28;20372;-74
2022/03/01 07:37:40;;;;;;;15.80;8.15;;;16.00;38.80;15.10;102507.00;;;;5073717;28;20041;-73
2022/03/01 07:40:26;;;;;;;11.45;7.25;;;16.00;38.70;15.10;102505.00;;;;5069019;28;20101;-73
2022/03/01 07:43:12;;;;;;;11.43;7.53;;;16.00;38.70;15.10;102496.00;;;;5057279;28;20045;-73
2022/03/01 07:45:58;;;;;;;12.57;6.95;;;16.10;38.80;15.10;102504.00;;;;5071766;28;20408;-73
2022/03/01 07:48:44;;;;;;;13.93;8.07;;;16.10;38.80;15.10;102511.00;;;;5065332;28;20037;-73
2022/03/01 07:51:30;;;;;;;9.70;6.90;;;16.10;38.70;15.10;102515.00;;;;5075914;28;20047;-73
2022/03/01 07:54:16;;;;;;;12.73;8.13;;;16.00;38.60;15.10;102509.00;;;;5063869;28;20044;-73
2022/03/01 07:57:03;;;;;;;13.43;7.70;;;16.10;38.70;15.20;102509.00;;;;5061272;28;20035;-73
2022/03/01 07:59:49;;;;;;;11.07;7.78;;;16.10;38.70;15.10;102514.00;;;;5056418;28;20045;-73
2022/03/01 08:02:35;;;;;;;12.52;7.18;;;16.10;38.70;15.20;102514.00;;;;5075411;28;20036;-73
2022/03/01 08:05:21;;;;;;;12.07;7.63;;;16.10;38.70;15.20;102502.00;;;;5058085;28;20043;-73
2022/03/01 08:08:08;;;;;;;11.95;7.18;;;16.10;38.70;15.20;102496.00;;;;5069344;28;20037;-73
2022/03/01 08:10:54;;;;;;;11.77;7.75;;;16.10;38.70;15.20;102502.00;;;;5069845;28;20040;-73
2022/03/01 08:13:40;;;;;;;13.40;7.85;;;16.10;38.60;15.20;102511.00;;;;5053327;28;20046;-73
2022/03/01 08:16:27;;;;;;;11.63;7.38;;;16.10;38.70;15.20;102514.00;;;;5060182;28;20512;-73
2022/03/01 08:19:32;;;;;;;12.25;7.20;;;16.10;38.60;15.20;102519.00;;;;5066685;28;20128;-74
2022/03/01 08:22:18;;;;;;;17.48;8.02;;;16.10;38.70;15.20;102509.00;;;;5051395;28;20404;-73
2022/03/01 08:25:05;;;;;;;10.73;7.13;;;16.10;38.60;15.20;102512.00;;;;5052008;28;20036;-73
2022/03/01 08:27:51;;;;;;;13.27;8.05;;;16.10;38.60;15.20;102514.00;;;;5068903;28;20486;-73
2022/03/01 08:30:40;;;;;;;14.07;8.00;;;16.10;38.60;15.20;102521.00;;;;5068374;28;20045;-74
2022/03/01 08:33:26;;;;;;;13.40;8.73;;;16.10;38.60;15.20;102519.00;;;;5070652;28;20048;-74
2022/03/01 08:36:13;;;;;;;15.30;8.15;;;16.10;38.60;15.10;102519.00;;;;5055452;28;20190;-74
2022/03/01 08:38:59;;;;;;;14.25;8.88;;;16.10;38.60;15.10;102512.00;;;;5042607;28;20041;-73
2022/03/01 08:41:45;;;;;;;16.75;8.38;;;16.10;38.50;15.10;102519.00;;;;5064494;28;20082;-73
2022/03/01 08:44:31;;;;;;;15.13;8.15;;;16.10;38.50;15.10;102521.00;;;;5056313;28;20036;-73
2022/03/01 08:47:17;;;;;;;15.68;8.15;;;16.10;38.50;15.10;102524.00;;;;5057315;28;20047;-73
2022/03/01 08:50:05;;;;;;;11.10;7.53;;;16.10;38.50;15.10;102526.00;;;;5050620;28;20041;-73
2022/03/01 08:52:51;;;;;;;11.00;7.53;;;16.10;38.90;15.10;102527.00;;;;5054698;28;20045;-73
2022/03/01 08:55:37;;;;;;;12.77;8.05;;;16.10;38.50;15.10;102524.00;;;;5070764;28;20036;-73
2022/03/01 08:58:26;;;;;;;11.57;6.75;;;16.10;38.50;15.10;102528.00;;;;5068226;28;20051;-73
2022/03/01 09:01:12;;;;;;;11.05;7.35;;;16.10;38.50;15.20;102523.00;;;;5057205;28;20322;-73
2022/03/01 09:03:59;;;;;;;11.13;7.47;;;16.10;38.50;15.20;102529.00;;;;5048800;28;20036;-73
2022/03/01 09:06:45;;;;;;;13.18;8.30;;;16.10;38.50;15.20;102522.00;;;;5051757;28;20036;-73
2022/03/01 09:09:32;;;;;;;15.50;7.75;;;16.10;38.50;15.20;102521.00;;;;5073819;28;20051;-73
2022/03/01 09:12:18;;;;;;;10.88;6.72;;;16.10;38.50;15.20;102530.00;;;;5054789;28;20041;-73
2022/03/01 09:15:04;;;;;;;11.32;6.60;;;16.10;38.50;15.20;102532.00;;;;5075316;28;20041;-74
2022/03/01 09:17:51;;;;;;;9.88;6.35;;;16.10;38.50;15.20;102538.00;;;;5066956;28;20048;-73
2022/03/01 09:20:37;;;;;;;11.27;7.35;;;16.20;38.50;15.20;102528.00;;;;5057992;28;20044;-73
2022/03/01 09:23:23;;;;;;;11.65;7.13;;;16.10;38.50;15.20;102532.00;;;;5052484;28;20051;-73
2022/03/01 09:26:10;;;;;;;10.73;6.40;;;16.10;38.40;15.20;102535.00;;;;5053158;28;20032;-73
2022/03/01 09:28:56;;;;;;;9.68;6.30;;;16.10;38.40;15.20;102528.00;;;;5049920;28;20028;-73
2022/03/01 09:31:42;;;;;;;10.77;6.43;;;16.20;38.40;15.20;102540.00;;;;5060516;28;20047;-73
2022/03/01 09:34:28;;;;;;;12.57;6.80;;;16.20;38.50;15.20;102538.00;;;;5069143;28;20040;-73
2022/03/01 09:37:14;;;;;;;10.85;6.13;;;16.20;38.40;15.20;102534.00;;;;5068343;28;20040;-73
2022/03/01 09:40:01;;;;;;;8.88;6.18;;;16.10;38.40;15.20;102537.00;;;;5065707;28;20052;-73
2022/03/01 09:42:47;;;;;;;11.55;6.38;;;16.20;38.40;15.20;102531.00;;;;5067794;28;20040;-73
2022/03/01 09:45:33;;;;;;;9.60;6.72;;;16.20;38.30;15.20;102526.00;;;;5057892;28;20047;-73
2022/03/01 09:48:19;;;;;;;9.77;6.25;;;16.20;38.40;15.20;102520.00;;;;5068153;28;20070;-73
2022/03/01 09:51:06;;;;;;;11.00;6.90;;;16.20;38.40;15.20;102524.00;;;;5057344;28;20396;-73
2022/03/01 09:53:53;;;;;;;12.20;6.35;;;16.20;38.20;15.20;102519.00;;;;5047479;28;20507;-73
2022/03/01 09:56:39;;;;;;;9.10;5.82;;;16.20;38.30;15.20;102533.00;;;;5053591;28;20076;-73
2022/03/01 09:59:25;;;;;;;9.77;6.75;;;16.10;38.20;15.20;102524.00;;;;5072420;28;20044;-73
2022/03/01 10:02:11;;;;;;;9.27;5.80;;;16.20;38.30;15.20;102522.00;;;;5054337;28;20419;-73
2022/03/01 10:04:57;;;;;;;10.27;6.00;;;16.20;38.30;15.20;102516.00;;;;5071558;28;20043;-73
2022/03/01 10:07:45;;;;;;;7.90;5.47;;;16.20;38.30;15.20;102525.00;;;;5069140;28;20179;-73
2022/03/01 10:10:37;;;;;;;8.02;5.13;;;16.20;38.40;15.20;102523.00;;;;5056818;28;20441;-73
2022/03/01 10:13:32;;;;;;;7.78;5.38;;;16.20;38.30;15.20;102539.00;;;;5066266;28;20045;-73
2022/03/01 10:16:18;;;;;;;9.15;5.72;;;16.20;38.30;15.20;102539.00;;;;5053687;28;20072;-73
2022/03/01 10:19:11;;;;;;;9.18;5.93;;;16.30;38.30;15.20;102541.00;;;;5059167;28;20039;-74
2022/03/01 10:22:02;;;;;;;9.73;5.47;;;16.20;38.30;15.20;102532.00;;;;5040016;28;20032;-73
2022/03/01 10:24:48;;;;;;;10.57;6.05;;;16.30;38.30;15.20;102534.00;;;;5076695;28;20032;-73
2022/03/01 10:27:34;;;;;;;9.32;5.93;;;16.30;38.40;15.20;102529.00;;;;5058238;28;20032;-73
2022/03/01 10:30:29;;;;;;;9.00;5.70;;;16.30;38.30;15.30;102529.00;;;;5054518;28;20040;-73
2022/03/01 10:33:16;;;;;;;7.82;5.10;;;16.30;38.30;15.30;102540.00;;;;5062108;28;20082;-73
2022/03/01 10:36:02;;;;;;;7.85;5.60;;;16.30;38.40;15.30;102536.00;;;;5044250;28;20132;-73
2022/03/01 10:39:04;;;;;;;8.65;5.28;;;16.30;38.30;15.30;102534.00;;;;5053090;28;20131;-73
2022/03/01 10:41:51;;;;;;;8.20;5.20;;;16.30;38.30;15.30;102536.00;;;;5067767;28;20120;-74
2022/03/01 10:44:37;;;;;;;8.18;5.65;;;16.30;38.30;15.30;102535.00;;;;5070019;28;20032;-73
2022/03/01 10:47:23;;;;;;;8.18;5.25;;;16.30;38.30;15.30;102529.00;;;;5070037;28;20059;-73
2022/03/01 10:50:10;;;;;;;9.13;5.70;;;16.20;38.20;15.30;102536.00;;;;5055477;28;20443;-73
2022/03/01 10:52:56;;;;;;;7.65;4.95;;;16.30;38.20;15.30;102540.00;;;;5062518;28;20336;-73
2022/03/01 10:55:43;;;;;;;8.10;5.00;;;16.30;38.20;15.30;102538.00;;;;5067342;28;20040;-73
2022/03/01 10:58:29;;;;;;;6.95;4.80;;;16.30;38.20;15.30;102538.00;;;;5073262;28;20036;-73
2022/03/01 11:01:16;;;;;;;8.68;5.32;;;16.30;38.20;15.30;102545.00;;;;5070499;28;20486;-73
2022/03/01 11:04:03;;;;;;;8.98;5.35;;;16.30;38.20;15.30;102540.00;;;;5053210;28;20036;-73
2022/03/01 11:06:49;;;;;;;8.07;4.90;;;16.30;38.20;15.30;102532.00;;;;5041643;28;20035;-73
2022/03/01 11:09:35;;;;;;;6.72;4.45;;;16.30;38.20;15.30;102520.00;;;;5055416;28;20313;-65
2022/03/01 11:12:22;;;;;;;7.90;4.75;;;16.40;38.20;15.30;102514.00;;;;5069358;28;20477;-65
2022/03/01 11:15:26;;;;;;;7.25;4.95;;;16.40;38.20;15.30;102508.00;;;;5064768;28;20497;-65
2022/03/01 11:18:40;;;;;;;6.57;4.93;;;16.40;38.20;15.30;102520.00;;;;5071497;28;20556;-65
2022/03/01 11:21:26;;;;;;;7.18;4.70;;;16.40;38.10;15.30;102523.00;;;;5064800;28;20056;-65
2022/03/01 11:24:14;;;;;;;10.75;5.75;;;16.40;38.10;15.30;102508.00;;;;5069980;28;20043;-65
2022/03/01 11:27:07;;;;;;;6.82;4.72;;;16.40;38.10;15.30;102519.00;;;;5050465;28;20060;-65
2022/03/01 11:30:08;;;;;;;9.77;5.47;;;16.40;38.10;15.30;102515.00;;;;5042065;28;20036;-65
2022/03/01 11:32:56;;;;;;;6.03;4.45;;;16.40;38.10;15.30;102509.00;;;;5068527;28;20124;-65
2022/03/01 11:35:43;;;;;;;6.80;4.43;;;16.40;38.10;15.40;102509.00;;;;5058715;28;20297;-65
2022/03/01 11:38:32;;;;;;;7.43;5.33;;;16.40;38.30;15.40;102507.00;;;;5075706;28;20482;-65
2022/03/01 11:41:20;;;;;;;7.88;4.93;;;16.40;38.10;15.40;102500.00;;;;5057446;28;20293;-65
2022/03/01 11:44:07;;;;;;;7.10;4.90;;;16.40;38.10;15.40;102495.00;;;;5070514;28;20032;-65
2022/03/01 11:46:54;;;;;;;6.97;4.85;;;16.40;38.00;15.40;102495.00;;;;5058149;28;20067;-65
2022/03/01 11:49:41;;;;;;;7.97;5.00;;;16.50;38.10;15.40;102495.00;;;;5072648;28;20047;-65
2022/03/01 11:52:27;;;;;;;6.68;4.75;;;16.50;38.10;15.40;102498.00;;;;5060865;28;20047;-65
2022/03/01 11:55:13;;;;;;;7.93;4.63;;;16.50;38.10;15.40;102497.00;;;;5063420;28;20041;-65
2022/03/01 11:57:59;;;;;;;9.60;5.72;;;16.50;38.10;15.40;102495.00;;;;5058933;28;20040;-65
2022/03/01 12:00:46;;;;;;;9.20;4.85;;;16.50;38.10;15.40;102500.00;;;;5050303;28;20041;-65
2022/03/01 12:03:34;;;;;;;9.27;5.30;;;16.50;38.10;15.40;102497.00;;;;5038081;28;20049;-65
2022/03/01 12:06:23;;;;;;;7.13;4.70;;;16.50;38.10;15.40;102496.00;;;;5043045;28;20470;-65
2022/03/01 12:09:10;;;;;;;7.07;4.82;;;16.50;38.10;15.40;102486.00;;;;5058028;28;20066;-65